Time;durP1;ratioP1;P1;durP2;ratioP2;P2;SDS_P1;SDS_P2;PMS_P1;PMS_P2;Temp;Humidity;BMP_temperature;BMP_pressure;BME280_temperature;BME280_humidity;BME280_pressure;Samples;Min_cycle;Max_cycle;Signal;HPM_P1;HPM_P2
2021/05/28 00:00:10;;;;;;;4.35;3.17;;;11.10;99.90;;;;;;4991745;28;20050;-73
2021/05/28 00:02:36;;;;;;;5.10;3.20;;;11.10;99.90;;;;;;4992017;28;20113;-74
2021/05/28 00:05:03;;;;;;;3.92;3.50;;;11.10;99.90;;;;;;4974622;28;20126;-73
2021/05/28 00:07:29;;;;;;;4.30;3.45;;;11.10;99.90;;;;;;4992600;28;20033;-73
2021/05/28 00:09:54;;;;;;;6.30;3.38;;;11.10;99.90;;;;;;4990282;28;20030;-73
2021/05/28 00:12:20;;;;;;;4.22;2.90;;;11.10;99.90;;;;;;4991545;28;20022;-71
2021/05/28 00:14:46;;;;;;;3.30;2.95;;;10.90;99.90;;;;;;4991499;28;20081;-72
2021/05/28 00:17:11;;;;;;;4.40;2.42;;;10.80;99.90;;;;;;4991711;28;20030;-73
2021/05/28 00:19:37;;;;;;;2.67;2.47;;;10.70;99.90;;;;;;4990462;28;20018;-72
2021/05/28 00:22:03;;;;;;;4.63;3.10;;;10.60;99.90;;;;;;4991675;28;20022;-72
2021/05/28 00:24:28;;;;;;;3.92;2.80;;;10.60;99.90;;;;;;4974753;28;20117;-73
2021/05/28 00:26:54;;;;;;;5.13;2.55;;;10.50;99.90;;;;;;4991626;28;20034;-73
2021/05/28 00:29:20;;;;;;;3.75;3.38;;;10.50;99.90;;;;;;4991523;28;20065;-72
2021/05/28 00:31:45;;;;;;;4.03;3.13;;;10.70;99.90;;;;;;4991651;28;20034;-73
2021/05/28 00:34:11;;;;;;;3.25;2.88;;;10.70;99.90;;;;;;4991728;28;20185;-72
2021/05/28 00:36:37;;;;;;;5.47;3.47;;;10.50;99.90;;;;;;4991578;28;20019;-72
2021/05/28 00:39:03;;;;;;;7.25;3.80;;;10.50;99.90;;;;;;4990852;28;20056;-72
2021/05/28 00:41:29;;;;;;;4.78;3.38;;;10.50;99.90;;;;;;4990732;28;20027;-72
2021/05/28 00:43:55;;;;;;;4.18;3.78;;;10.50;99.90;;;;;;4991531;28;20496;-72
2021/05/28 00:46:21;;;;;;;4.20;3.80;;;10.40;99.90;;;;;;4992510;28;20038;-75
2021/05/28 00:48:49;;;;;;;7.53;4.20;;;10.30;99.90;;;;;;4991842;28;20022;-73
2021/05/28 00:51:14;;;;;;;4.60;4.07;;;10.20;99.90;;;;;;4973870;28;20030;-73
2021/05/28 00:53:40;;;;;;;5.10;4.65;;;10.10;99.90;;;;;;4975154;28;20031;-72
2021/05/28 00:56:06;;;;;;;5.72;4.38;;;10.10;99.90;;;;;;4974085;28;20030;-72
2021/05/28 00:58:32;;;;;;;6.50;4.18;;;10.00;99.90;;;;;;4992282;28;20042;-72
2021/05/28 01:00:57;;;;;;;5.18;4.07;;;9.90;99.90;;;;;;4993061;28;20484;-72
2021/05/28 01:03:23;;;;;;;5.20;4.50;;;9.80;99.90;;;;;;4992318;28;20480;-72
2021/05/28 01:05:49;;;;;;;6.50;4.32;;;9.80;99.90;;;;;;4972935;28;20109;-73
2021/05/28 01:08:15;;;;;;;7.35;4.85;;;9.80;99.90;;;;;;4991558;28;20074;-71
2021/05/28 01:10:41;;;;;;;5.32;4.82;;;9.90;99.90;;;;;;4990551;28;20058;-72
2021/05/28 01:13:09;;;;;;;6.53;4.57;;;10.00;99.90;;;;;;4973567;28;20081;-73
2021/05/28 01:15:35;;;;;;;7.57;4.30;;;10.00;99.90;;;;;;4991292;28;20084;-72
2021/05/28 01:18:01;;;;;;;4.93;4.50;;;10.00;99.90;;;;;;4991480;28;20049;-72
2021/05/28 01:20:27;;;;;;;4.45;4.05;;;10.00;99.90;;;;;;4989844;28;20026;-72
2021/05/28 01:22:53;;;;;;;5.68;4.97;;;10.00;99.90;;;;;;4991349;28;20026;-71
2021/05/28 01:25:20;;;;;;;4.47;4.05;;;9.90;99.90;;;;;;4991054;28;20369;-74
2021/05/28 01:27:46;;;;;;;5.50;4.53;;;9.90;99.90;;;;;;4992710;28;20030;-72
2021/05/28 01:30:13;;;;;;;7.97;5.05;;;9.90;99.90;;;;;;4994334;28;20036;-73
2021/05/28 01:32:40;;;;;;;5.45;4.95;;;9.80;99.90;;;;;;4994356;28;20737;-72
2021/05/28 01:35:06;;;;;;;5.10;4.70;;;9.80;99.90;;;;;;4994789;28;20069;-72
2021/05/28 01:37:32;;;;;;;6.78;6.18;;;9.80;99.90;;;;;;4994717;28;20077;-73
2021/05/28 01:39:57;;;;;;;7.45;5.40;;;9.80;99.90;;;;;;4976475;28;20034;-73
2021/05/28 01:42:23;;;;;;;5.80;5.30;;;9.80;99.90;;;;;;4994651;28;20041;-72
2021/05/28 01:44:49;;;;;;;6.72;5.10;;;9.80;99.90;;;;;;4994352;28;20105;-73
2021/05/28 01:47:15;;;;;;;6.18;5.05;;;9.80;99.90;;;;;;4977266;28;20092;-74
2021/05/28 01:49:41;;;;;;;6.45;5.18;;;9.80;99.90;;;;;;4994091;28;20036;-73
2021/05/28 01:52:08;;;;;;;7.63;5.38;;;9.80;99.90;;;;;;4994831;28;20560;-73
2021/05/28 01:54:35;;;;;;;10.55;5.93;;;9.80;99.90;;;;;;4994577;28;20034;-73
2021/05/28 01:57:03;;;;;;;8.35;5.88;;;9.80;99.90;;;;;;4994343;28;20102;-73
2021/05/28 01:59:28;;;;;;;6.38;5.30;;;9.80;99.90;;;;;;4993391;28;20128;-72
2021/05/28 02:01:55;;;;;;;7.35;5.57;;;9.80;99.90;;;;;;4994210;28;20524;-73
2021/05/28 02:04:22;;;;;;;7.30;5.70;;;9.90;99.90;;;;;;4994180;28;20035;-73
2021/05/28 02:06:48;;;;;;;6.10;5.50;;;10.00;99.90;;;;;;4994076;28;20054;-73
2021/05/28 02:09:14;;;;;;;7.45;5.82;;;10.10;99.90;;;;;;4976663;28;20126;-73
2021/05/28 02:11:39;;;;;;;9.02;5.50;;;10.10;99.90;;;;;;4993613;28;20030;-72
2021/05/28 02:14:06;;;;;;;6.10;5.47;;;10.10;99.90;;;;;;4993831;28;20030;-72
2021/05/28 02:16:35;;;;;;;6.95;6.00;;;10.10;99.90;;;;;;4993901;28;20018;-73
2021/05/28 02:19:01;;;;;;;11.43;5.45;;;10.20;99.90;;;;;;4990323;28;20030;-73
2021/05/28 02:21:28;;;;;;;6.40;5.80;;;10.20;99.90;;;;;;4973809;28;20023;-72
2021/05/28 02:23:54;;;;;;;6.45;5.40;;;10.20;99.90;;;;;;4974498;28;20034;-72
2021/05/28 02:26:20;;;;;;;6.35;5.75;;;10.20;99.90;;;;;;4974440;28;20027;-73
2021/05/28 02:28:45;;;;;;;5.68;4.90;;;10.30;99.90;;;;;;4957381;28;20390;-73
2021/05/28 02:31:12;;;;;;;8.85;5.22;;;10.20;99.90;;;;;;4975516;28;20476;-71
2021/05/28 02:33:38;;;;;;;10.30;5.50;;;10.10;99.90;;;;;;4993619;28;20084;-73
2021/05/28 02:36:05;;;;;;;10.00;5.28;;;10.20;99.90;;;;;;4993224;28;20023;-73
2021/05/28 02:38:31;;;;;;;7.60;5.50;;;10.30;99.90;;;;;;4991416;28;20025;-72
2021/05/28 02:40:57;;;;;;;6.45;5.53;;;10.20;99.90;;;;;;4975327;28;20027;-73
2021/05/28 02:43:23;;;;;;;11.18;5.70;;;10.10;99.90;;;;;;4993594;28;20034;-73
2021/05/28 02:45:49;;;;;;;5.93;5.43;;;10.10;99.90;;;;;;4993488;28;20023;-73
2021/05/28 02:48:15;;;;;;;8.73;5.40;;;10.20;99.90;;;;;;4993581;28;20101;-73
2021/05/28 02:50:40;;;;;;;8.60;5.38;;;10.10;99.90;;;;;;4992723;28;20030;-73
2021/05/28 02:53:06;;;;;;;6.25;5.65;;;10.00;99.90;;;;;;4975410;28;20026;-73
2021/05/28 02:55:32;;;;;;;7.03;5.97;;;10.00;99.90;;;;;;4976129;28;20026;-73
2021/05/28 02:57:58;;;;;;;6.93;6.20;;;10.00;99.90;;;;;;4993158;28;20487;-72
2021/05/28 03:00:24;;;;;;;6.47;5.85;;;10.00;99.90;;;;;;4992234;28;20018;-72
2021/05/28 03:02:50;;;;;;;7.10;6.07;;;9.90;99.90;;;;;;5001099;28;20033;-73
2021/05/28 03:05:17;;;;;;;9.77;6.65;;;9.90;99.90;;;;;;4993018;28;20035;-73
2021/05/28 03:07:43;;;;;;;8.55;6.70;;;9.90;99.90;;;;;;4993058;28;20603;-73
2021/05/28 03:10:10;;;;;;;6.80;6.10;;;10.00;99.90;;;;;;4992512;28;20140;-72
2021/05/28 03:12:36;;;;;;;6.70;5.75;;;9.90;99.90;;;;;;4993097;28;20117;-74
2021/05/28 03:15:03;;;;;;;12.88;5.57;;;9.90;99.90;;;;;;4993208;28;20030;-75
2021/05/28 03:17:29;;;;;;;7.78;5.13;;;9.80;99.90;;;;;;4992664;28;20026;-74
2021/05/28 03:19:55;;;;;;;6.70;5.32;;;9.80;99.90;;;;;;4992193;28;20097;-75
2021/05/28 03:22:35;;;;;;;8.60;5.72;;;9.90;99.90;;;;;;4975217;28;20043;-75
2021/05/28 03:25:10;;;;;;;6.22;5.32;;;9.90;99.90;;;;;;4992986;28;20022;-75
2021/05/28 03:27:36;;;;;;;6.53;5.53;;;10.00;99.90;;;;;;4991739;28;20050;-75
2021/05/28 03:30:08;;;;;;;6.20;4.88;;;9.80;99.90;;;;;;4991990;28;20041;-75
2021/05/28 03:32:34;;;;;;;6.07;5.47;;;9.60;99.90;;;;;;4992605;28;20396;-76
2021/05/28 03:35:00;;;;;;;6.18;4.90;;;9.50;99.90;;;;;;4980034;28;20019;-74
2021/05/28 03:37:26;;;;;;;8.82;6.22;;;9.50;99.90;;;;;;4973501;28;20023;-75
2021/05/28 03:39:51;;;;;;;8.63;5.70;;;9.40;99.90;;;;;;4972942;28;20022;-75
2021/05/28 03:42:18;;;;;;;7.93;6.40;;;9.60;99.90;;;;;;4973184;28;20047;-74
2021/05/28 03:44:44;;;;;;;6.18;5.65;;;9.50;99.90;;;;;;4973225;28;20098;-75
2021/05/28 03:47:10;;;;;;;6.20;5.60;;;9.30;99.90;;;;;;4982631;28;20018;-75
2021/05/28 03:49:37;;;;;;;7.45;6.53;;;9.20;99.90;;;;;;4991313;28;20097;-74
2021/05/28 03:52:03;;;;;;;10.85;6.95;;;9.30;99.90;;;;;;4991550;28;20394;-74
2021/05/28 03:54:29;;;;;;;9.75;7.40;;;9.40;99.90;;;;;;4974403;28;20547;-75
2021/05/28 03:56:54;;;;;;;9.77;7.38;;;9.40;99.90;;;;;;4992324;28;20146;-75
2021/05/28 03:59:20;;;;;;;9.30;7.78;;;9.40;99.90;;;;;;4990879;28;20038;-75
2021/05/28 04:01:46;;;;;;;8.93;7.57;;;9.30;99.90;;;;;;4992227;28;20041;-75
2021/05/28 04:04:12;;;;;;;8.40;7.60;;;9.30;99.90;;;;;;4973982;28;20488;-75
2021/05/28 04:06:37;;;;;;;10.90;8.35;;;9.30;99.90;;;;;;4992090;28;20036;-75
2021/05/28 04:09:04;;;;;;;11.15;9.10;;;9.20;99.90;;;;;;4991726;28;20033;-75
2021/05/28 04:11:30;;;;;;;10.70;7.82;;;9.20;99.90;;;;;;4990947;28;20053;-75
2021/05/28 04:13:55;;;;;;;11.18;7.60;;;9.10;99.90;;;;;;4993647;28;20042;-74
2021/05/28 04:16:21;;;;;;;8.30;7.60;;;9.10;99.90;;;;;;4992949;28;20027;-76
2021/05/28 04:18:47;;;;;;;10.45;7.55;;;9.10;99.90;;;;;;4991357;28;20750;-75
2021/05/28 04:21:12;;;;;;;8.50;7.60;;;9.00;99.90;;;;;;4991727;28;20030;-75
2021/05/28 04:23:38;;;;;;;9.02;7.38;;;9.00;99.90;;;;;;4992625;28;20030;-75
2021/05/28 04:26:04;;;;;;;9.13;7.80;;;9.00;99.90;;;;;;4991354;28;20370;-75
2021/05/28 04:28:30;;;;;;;14.85;7.78;;;9.00;99.90;;;;;;4992790;28;20033;-75
2021/05/28 04:30:57;;;;;;;9.18;7.47;;;9.00;99.90;;;;;;4990628;28;20030;-74
2021/05/28 04:33:23;;;;;;;14.18;10.20;;;9.00;99.90;;;;;;4991938;28;20045;-75
2021/05/28 04:35:49;;;;;;;9.95;8.52;;;8.90;99.90;;;;;;4992274;28;20380;-74
2021/05/28 04:38:15;;;;;;;11.98;8.45;;;9.00;99.90;;;;;;4992037;28;20022;-75
2021/05/28 04:40:41;;;;;;;12.70;8.48;;;9.00;99.90;;;;;;4973832;28;20026;-74
2021/05/28 04:43:06;;;;;;;12.60;8.88;;;8.90;99.90;;;;;;4991828;28;20078;-74
2021/05/28 04:45:32;;;;;;;10.98;8.25;;;9.00;99.90;;;;;;4992227;28;20034;-75
2021/05/28 04:47:58;;;;;;;11.95;9.07;;;9.00;99.90;;;;;;4973335;28;20035;-74
2021/05/28 04:50:42;;;;;;;10.95;8.48;;;9.00;99.90;;;;;;4991434;28;20393;-74
2021/05/28 04:53:08;;;;;;;9.90;8.73;;;9.10;99.90;;;;;;4990397;28;20038;-74
2021/05/28 04:55:34;;;;;;;11.95;9.38;;;9.10;99.90;;;;;;4973945;28;20369;-74
2021/05/28 04:58:00;;;;;;;10.70;8.65;;;9.20;99.90;;;;;;4991670;28;20469;-74
2021/05/28 05:00:27;;;;;;;9.88;8.88;;;9.30;99.90;;;;;;4974275;28;20386;-74
2021/05/28 05:02:53;;;;;;;9.55;8.48;;;9.50;99.90;;;;;;4993443;28;20034;-74
2021/05/28 05:05:19;;;;;;;8.55;7.65;;;9.60;99.90;;;;;;4995431;28;20384;-75
2021/05/28 05:07:44;;;;;;;7.15;6.38;;;9.60;99.90;;;;;;4995585;28;20080;-75
2021/05/28 05:10:12;;;;;;;6.82;5.88;;;9.50;99.90;;;;;;4994870;28;20038;-74
2021/05/28 05:12:39;;;;;;;8.90;6.82;;;9.50;99.90;;;;;;4995483;28;20436;-75
2021/05/28 05:15:06;;;;;;;9.55;6.07;;;9.70;99.90;;;;;;4994979;28;20080;-74
2021/05/28 05:17:31;;;;;;;7.55;5.95;;;9.70;99.90;;;;;;4995188;28;20109;-75
2021/05/28 05:19:57;;;;;;;6.20;5.60;;;9.70;99.90;;;;;;4994768;28;20485;-75
2021/05/28 05:22:24;;;;;;;5.95;5.10;;;9.70;99.90;;;;;;4995457;28;20022;-78
2021/05/28 05:24:49;;;;;;;8.90;5.45;;;9.60;99.90;;;;;;4995182;28;20067;-76
2021/05/28 05:27:15;;;;;;;7.88;6.70;;;9.70;99.90;;;;;;4995333;28;20026;-75
2021/05/28 05:29:41;;;;;;;8.20;7.18;;;9.90;99.90;;;;;;4994575;28;20023;-74
2021/05/28 05:32:07;;;;;;;8.90;6.65;;;10.00;99.90;;;;;;4995420;28;20028;-76
2021/05/28 05:34:33;;;;;;;7.65;6.93;;;10.20;99.90;;;;;;4994952;28;20037;-74
2021/05/28 05:37:01;;;;;;;7.88;7.05;;;10.30;99.90;;;;;;4977496;28;20042;-74
2021/05/28 05:39:28;;;;;;;11.85;7.57;;;10.30;99.90;;;;;;4994181;28;20046;-75
2021/05/28 05:41:53;;;;;;;7.53;6.57;;;10.20;99.90;;;;;;4994992;28;20440;-74
2021/05/28 05:44:19;;;;;;;7.80;6.10;;;10.30;99.90;;;;;;4995211;28;20117;-75
2021/05/28 05:46:45;;;;;;;7.95;6.05;;;10.20;99.90;;;;;;4995133;28;20026;-75
2021/05/28 05:49:11;;;;;;;6.95;6.35;;;10.20;99.90;;;;;;4994783;28;20101;-75
2021/05/28 05:51:37;;;;;;;10.02;6.88;;;10.20;99.90;;;;;;4994621;28;20056;-74
2021/05/28 05:54:04;;;;;;;9.20;6.38;;;10.20;99.90;;;;;;4995050;28;20093;-75
2021/05/28 05:56:29;;;;;;;8.00;6.32;;;10.20;99.90;;;;;;4995475;28;20428;-76
2021/05/28 05:58:55;;;;;;;8.23;6.60;;;10.20;99.90;;;;;;4994931;28;20042;-75
2021/05/28 06:01:21;;;;;;;6.53;5.93;;;10.40;99.90;;;;;;4994422;28;20031;-74
2021/05/28 06:03:46;;;;;;;8.93;6.72;;;10.50;99.90;;;;;;5000047;28;20501;-74
2021/05/28 06:06:12;;;;;;;8.70;7.38;;;10.40;99.90;;;;;;4992426;28;20042;-74
2021/05/28 06:08:38;;;;;;;8.02;6.30;;;10.40;99.90;;;;;;5004063;28;20456;-75
2021/05/28 06:11:03;;;;;;;9.88;6.57;;;10.50;99.90;;;;;;4998989;28;20567;-73
2021/05/28 06:13:29;;;;;;;7.18;6.50;;;10.60;99.90;;;;;;4995550;28;20050;-74
2021/05/28 06:15:55;;;;;;;9.02;6.97;;;10.90;99.90;;;;;;5001855;28;20061;-74
2021/05/28 06:18:20;;;;;;;8.82;7.30;;;11.00;99.90;;;;;;4978200;28;20018;-73
2021/05/28 06:20:46;;;;;;;8.68;7.22;;;11.10;99.90;;;;;;4996646;28;20393;-73
2021/05/28 06:23:12;;;;;;;7.50;6.78;;;11.20;99.90;;;;;;4984183;28;20058;-75
2021/05/28 06:25:41;;;;;;;10.30;7.50;;;11.40;99.90;;;;;;4975042;28;20469;-73
2021/05/28 06:28:08;;;;;;;10.25;7.28;;;11.50;99.90;;;;;;4957694;28;20034;-75
2021/05/28 06:30:34;;;;;;;8.60;7.60;;;11.50;99.90;;;;;;4974821;28;20042;-74
2021/05/28 06:33:07;;;;;;;13.27;7.82;;;11.30;99.90;;;;;;4975805;28;20608;-74
2021/05/28 06:35:34;;;;;;;12.00;8.63;;;11.20;99.90;;;;;;4976597;28;20113;-75
2021/05/28 06:38:00;;;;;;;9.57;7.03;;;11.30;99.90;;;;;;4993544;28;20033;-76
2021/05/28 06:40:26;;;;;;;11.40;7.82;;;11.40;99.90;;;;;;4992980;28;20046;-76
2021/05/28 06:42:51;;;;;;;12.55;7.65;;;11.60;99.90;;;;;;4993899;28;20461;-73
2021/05/28 06:45:18;;;;;;;7.80;7.00;;;11.90;99.90;;;;;;4993761;28;20037;-74
2021/05/28 06:47:45;;;;;;;7.55;6.60;;;11.90;99.90;;;;;;4975714;28;20030;-75
2021/05/28 06:50:12;;;;;;;9.50;6.82;;;12.00;99.90;;;;;;4992478;28;20073;-74
2021/05/28 06:52:38;;;;;;;7.60;6.47;;;12.30;99.90;;;;;;4993493;28;20031;-74
2021/05/28 06:55:04;;;;;;;12.90;7.13;;;12.50;99.90;;;;;;4993072;28;20019;-74
2021/05/28 06:57:30;;;;;;;7.97;5.43;;;12.70;99.90;;;;;;4993637;28;20053;-74
2021/05/28 06:59:55;;;;;;;7.22;3.10;;;13.20;99.90;;;;;;4993859;28;20096;-72
2021/05/28 07:02:21;;;;;;;6.93;5.18;;;14.40;99.90;;;;;;4975425;28;20031;-72
2021/05/28 07:04:47;;;;;;;8.90;5.68;;;14.60;99.90;;;;;;4992584;28;20026;-72
2021/05/28 07:07:13;;;;;;;7.88;6.13;;;14.40;99.90;;;;;;4993298;28;20030;-72
2021/05/28 07:09:38;;;;;;;12.20;5.82;;;14.00;99.90;;;;;;4992236;28;20033;-74
2021/05/28 07:12:04;;;;;;;9.18;5.63;;;14.10;99.90;;;;;;4992816;28;20439;-72
2021/05/28 07:14:30;;;;;;;7.70;5.53;;;14.50;99.90;;;;;;4972240;28;20035;-74
2021/05/28 07:16:55;;;;;;;6.28;5.45;;;14.80;99.90;;;;;;4974169;28;20081;-72
2021/05/28 07:19:21;;;;;;;10.10;5.38;;;15.20;99.90;;;;;;4972754;28;20085;-73
2021/05/28 07:21:47;;;;;;;9.35;5.80;;;15.00;99.90;;;;;;4973139;28;20097;-74
2021/05/28 07:24:13;;;;;;;5.95;5.13;;;15.20;99.90;;;;;;4974038;28;20031;-74
2021/05/28 07:26:38;;;;;;;9.85;5.50;;;15.20;99.90;;;;;;4972835;28;20685;-72
2021/05/28 07:29:04;;;;;;;7.10;4.72;;;15.30;99.90;;;;;;4973347;28;20026;-73
2021/05/28 07:31:30;;;;;;;9.55;6.00;;;15.10;99.90;;;;;;4981553;28;20038;-75
2021/05/28 07:33:56;;;;;;;5.63;5.13;;;14.20;99.90;;;;;;4975308;28;20492;-72
2021/05/28 07:36:23;;;;;;;6.72;5.93;;;13.90;99.90;;;;;;4975365;28;20030;-73
2021/05/28 07:38:49;;;;;;;5.85;5.22;;;13.90;99.90;;;;;;4993658;28;20153;-74
2021/05/28 07:41:36;;;;;;;5.28;4.78;;;13.90;99.90;;;;;;4990912;28;20030;-74
2021/05/28 07:44:02;;;;;;;5.75;5.05;;;14.50;99.90;;;;;;4992518;28;20068;-73
2021/05/28 07:46:28;;;;;;;6.40;5.18;;;15.40;99.90;;;;;;4973495;28;20050;-73
2021/05/28 07:48:53;;;;;;;6.25;4.75;;;15.60;99.90;;;;;;4972813;28;20371;-73
2021/05/28 07:51:20;;;;;;;8.15;5.68;;;15.60;99.90;;;;;;4972437;28;20027;-75
2021/05/28 07:53:46;;;;;;;4.88;4.47;;;15.30;99.90;;;;;;4977236;28;20089;-74
2021/05/28 07:56:12;;;;;;;5.40;4.90;;;15.50;99.90;;;;;;4974364;28;20027;-73
2021/05/28 07:58:38;;;;;;;6.93;4.78;;;15.20;99.90;;;;;;4957016;28;20038;-73
2021/05/28 08:01:04;;;;;;;8.07;5.22;;;14.90;99.90;;;;;;4972377;28;20051;-74
2021/05/28 08:03:30;;;;;;;5.15;4.60;;;15.00;99.90;;;;;;4982450;28;20520;-72
2021/05/28 08:05:56;;;;;;;5.78;5.00;;;15.10;99.90;;;;;;4993350;28;20524;-74
2021/05/28 08:08:27;;;;;;;4.57;4.18;;;15.10;99.90;;;;;;4992582;28;20035;-73
2021/05/28 08:10:53;;;;;;;9.52;4.32;;;15.10;99.90;;;;;;4992063;28;20072;-74
2021/05/28 08:13:19;;;;;;;6.82;4.28;;;15.20;99.90;;;;;;4993858;28;20030;-74
2021/05/28 08:15:45;;;;;;;5.88;4.30;;;15.40;99.90;;;;;;4994526;28;20018;-75
2021/05/28 08:18:11;;;;;;;6.05;4.78;;;15.50;99.90;;;;;;4975638;28;20059;-73
2021/05/28 08:20:37;;;;;;;8.40;4.90;;;15.70;99.90;;;;;;4990234;28;20038;-73
2021/05/28 08:23:03;;;;;;;6.75;4.00;;;15.70;99.90;;;;;;4992391;28;20101;-75
2021/05/28 08:25:28;;;;;;;4.90;4.20;;;15.80;99.90;;;;;;4993013;28;20081;-73
2021/05/28 08:27:55;;;;;;;6.53;3.92;;;15.90;99.90;;;;;;4993895;28;20451;-72
2021/05/28 08:30:21;;;;;;;5.20;3.75;;;16.20;99.90;;;;;;4971333;28;20034;-75
2021/05/28 08:32:47;;;;;;;7.38;3.33;;;16.30;99.90;;;;;;4956177;28;20030;-74
2021/05/28 08:35:14;;;;;;;6.45;3.33;;;16.40;99.90;;;;;;4988830;28;20034;-76
2021/05/28 08:37:39;;;;;;;3.95;2.70;;;16.30;99.90;;;;;;4997912;28;20450;-74
2021/05/28 08:40:06;;;;;;;3.03;2.65;;;15.90;99.90;;;;;;5001730;28;20030;-74
2021/05/28 08:42:32;;;;;;;3.13;2.90;;;15.90;99.90;;;;;;5001909;28;20033;-74
2021/05/28 08:44:59;;;;;;;6.30;3.10;;;15.30;99.90;;;;;;5002267;28;20369;-75
2021/05/28 08:47:25;;;;;;;5.03;3.08;;;15.40;99.90;;;;;;4989417;28;20038;-74
2021/05/28 08:49:52;;;;;;;4.10;3.08;;;15.60;99.90;;;;;;5007843;28;20023;-74
2021/05/28 08:52:20;;;;;;;5.10;3.28;;;16.00;99.90;;;;;;5006093;28;20022;-74
2021/05/28 08:54:47;;;;;;;2.70;2.40;;;15.90;99.90;;;;;;5004468;28;20476;-74
2021/05/28 08:57:13;;;;;;;2.83;2.53;;;16.00;99.90;;;;;;4983358;28;20038;-74
2021/05/28 08:59:39;;;;;;;3.00;2.70;;;16.10;99.90;;;;;;5005366;28;20031;-73
2021/05/28 09:02:39;;;;;;;3.08;2.70;;;16.50;99.90;;;;;;5004599;28;20029;-73
2021/05/28 09:05:12;;;;;;;2.88;2.65;;;16.60;99.90;;;;;;5008714;28;20049;-75
2021/05/28 09:07:51;;;;;;;6.00;3.28;;;16.90;99.90;;;;;;5010186;28;20074;-73
2021/05/28 09:10:36;;;;;;;5.15;2.95;;;16.60;99.90;;;;;;5006814;28;20022;-74
2021/05/28 09:13:19;;;;;;;3.30;2.90;;;16.90;99.90;;;;;;5005556;28;20113;-74
2021/05/28 09:16:09;;;;;;;7.85;3.65;;;17.80;99.90;;;;;;4993167;28;20027;-74
2021/05/28 09:18:56;;;;;;;6.03;3.85;;;17.80;99.90;;;;;;4972914;28;20058;-74
2021/05/28 09:21:31;;;;;;;4.05;2.78;;;16.80;99.90;;;;;;4982174;28;20079;-73
2021/05/28 09:24:01;;;;;;;4.97;2.95;;;17.00;99.90;;;;;;4982835;28;20053;-76
2021/05/28 09:26:28;;;;;;;3.10;2.55;;;17.50;99.90;;;;;;4965656;28;20027;-75
2021/05/28 09:28:55;;;;;;;2.90;2.30;;;17.80;99.90;;;;;;4983303;28;20027;-74
2021/05/28 09:31:34;;;;;;;3.13;2.60;;;17.70;99.90;;;;;;4982913;28;20707;-75
2021/05/28 09:34:00;;;;;;;3.65;2.55;;;18.10;99.90;;;;;;4981243;28;20037;-72
2021/05/28 09:36:33;;;;;;;6.25;2.47;;;18.90;99.90;;;;;;4980726;28;20094;-75
2021/05/28 09:39:09;;;;;;;2.58;2.38;;;19.20;99.90;;;;;;4980803;28;20019;-74
2021/05/28 09:41:57;;;;;;;3.78;2.53;;;19.70;99.90;;;;;;4978704;28;20150;-75
2021/05/28 09:44:28;;;;;;;5.50;3.08;;;20.60;99.90;;;;;;4966635;28;20031;-75
2021/05/28 09:47:17;;;;;;;7.00;3.15;;;20.90;99.10;;;;;;4983039;28;20485;-75
2021/05/28 09:49:48;;;;;;;3.65;2.80;;;21.50;96.90;;;;;;4965271;28;20493;-73
2021/05/28 09:52:28;;;;;;;3.05;2.80;;;21.80;95.20;;;;;;4978307;28;20022;-74
2021/05/28 09:55:08;;;;;;;3.42;2.80;;;21.50;95.80;;;;;;5002859;28;20464;-75
2021/05/28 09:57:35;;;;;;;4.75;2.70;;;20.30;95.70;;;;;;5000554;28;20030;-74
2021/05/28 10:00:23;;;;;;;4.30;2.70;;;19.70;98.70;;;;;;4999333;28;20030;-73
2021/05/28 10:03:26;;;;;;;3.42;2.03;;;20.10;96.80;;;;;;4982845;28;20038;-73
2021/05/28 10:05:54;;;;;;;5.38;2.10;;;20.50;97.70;;;;;;4972741;28;20259;-73
2021/05/28 10:08:21;;;;;;;3.70;2.50;;;20.60;96.40;;;;;;4994784;28;20026;-74
2021/05/28 10:10:49;;;;;;;3.65;2.55;;;19.40;98.30;;;;;;4995841;28;20023;-73
2021/05/28 10:13:17;;;;;;;6.18;2.08;;;19.60;99.90;;;;;;4977289;28;20023;-75
2021/05/28 10:15:45;;;;;;;5.57;2.72;;;20.00;98.70;;;;;;4996075;28;20030;-74
2021/05/28 10:18:12;;;;;;;3.95;2.38;;;19.80;99.00;;;;;;4990540;28;20038;-73
2021/05/28 10:20:41;;;;;;;7.03;3.03;;;19.80;98.20;;;;;;4973220;28;20038;-73
2021/05/28 10:23:09;;;;;;;3.60;2.45;;;19.30;98.10;;;;;;4974714;28;20042;-75
2021/05/28 10:25:35;;;;;;;3.42;2.60;;;18.80;98.70;;;;;;4958747;28;20023;-74
2021/05/28 10:28:04;;;;;;;6.95;2.85;;;18.40;98.90;;;;;;4983340;28;20034;-74
2021/05/28 10:30:39;;;;;;;3.95;2.72;;;18.10;99.00;;;;;;4996096;28;20505;-75
2021/05/28 10:33:25;;;;;;;4.05;2.88;;;17.70;99.40;;;;;;4988345;28;20038;-75
2021/05/28 10:36:09;;;;;;;5.15;3.15;;;17.60;99.90;;;;;;4985721;28;20030;-74
2021/05/28 10:38:48;;;;;;;6.15;3.45;;;17.60;99.90;;;;;;4975953;28;20042;-75
2021/05/28 10:41:14;;;;;;;5.55;2.88;;;18.00;99.90;;;;;;4994560;28;20428;-73
2021/05/28 10:43:49;;;;;;;3.63;2.72;;;17.90;99.90;;;;;;5001739;28;20073;-74
2021/05/28 10:46:15;;;;;;;4.47;2.83;;;17.30;99.90;;;;;;4985295;28;20033;-72
2021/05/28 10:48:42;;;;;;;4.70;2.90;;;17.60;99.90;;;;;;4985121;28;20022;-75
2021/05/28 10:51:13;;;;;;;3.65;2.97;;;17.00;99.90;;;;;;5002316;28;20542;-75
2021/05/28 10:53:59;;;;;;;3.45;2.80;;;16.80;99.90;;;;;;5001148;28;20026;-74
2021/05/28 10:56:44;;;;;;;8.20;3.25;;;17.30;99.90;;;;;;4984973;28;20038;-74
2021/05/28 10:59:15;;;;;;;5.60;3.13;;;17.30;99.90;;;;;;5004470;28;20081;-75
2021/05/28 11:01:51;;;;;;;4.20;2.22;;;18.20;99.90;;;;;;4999087;28;20102;-74
2021/05/28 11:04:23;;;;;;;4.00;2.28;;;18.40;99.40;;;;;;4998991;28;20035;-73
2021/05/28 11:06:54;;;;;;;5.05;1.95;;;19.20;98.40;;;;;;4996945;28;20088;-72
2021/05/28 11:09:35;;;;;;;6.38;3.00;;;19.50;97.40;;;;;;4996122;28;20037;-79
2021/05/28 11:12:02;;;;;;;2.75;2.33;;;19.60;96.40;;;;;;4980714;28;20096;-71
2021/05/28 11:14:29;;;;;;;2.92;2.30;;;19.80;96.40;;;;;;4980811;28;20026;-73
2021/05/28 11:16:57;;;;;;;2.95;2.20;;;19.90;96.30;;;;;;4996062;28;20026;-74
2021/05/28 11:19:26;;;;;;;6.20;2.50;;;19.70;96.50;;;;;;4997043;28;20080;-74
2021/05/28 11:21:58;;;;;;;3.47;2.63;;;20.60;95.80;;;;;;4995617;28;20030;-72
2021/05/28 11:24:42;;;;;;;4.55;2.90;;;20.10;97.00;;;;;;4997987;28;20030;-72
2021/05/28 11:27:24;;;;;;;6.97;2.65;;;20.30;96.30;;;;;;4996171;28;20027;-75
2021/05/28 11:30:03;;;;;;;7.22;3.25;;;20.20;96.40;;;;;;4996673;28;20034;-73
2021/05/28 11:32:37;;;;;;;6.25;2.83;;;21.00;95.80;;;;;;4997257;28;20497;-72
2021/05/28 11:35:23;;;;;;;5.63;3.22;;;20.50;95.00;;;;;;4998206;28;20041;-74
2021/05/28 11:37:50;;;;;;;5.03;2.45;;;19.10;97.10;;;;;;4998545;28;20031;-75
2021/05/28 11:40:22;;;;;;;3.55;2.53;;;19.30;97.80;;;;;;4999023;28;20015;-79
2021/05/28 11:42:48;;;;;;;3.70;2.70;;;20.50;96.50;;;;;;5009403;28;20033;-78
2021/05/28 11:45:16;;;;;;;3.35;2.17;;;21.60;93.70;;;;;;4974155;28;20061;-78
2021/05/28 11:47:42;;;;;;;3.47;2.20;;;23.30;94.70;;;;;;4994947;28;20051;-77
2021/05/28 11:50:19;;;;;;;3.53;1.90;;;23.80;89.60;;;;;;5000489;28;20054;-77
2021/05/28 11:52:56;;;;;;;3.42;2.20;;;23.90;88.00;;;;;;4975953;28;20824;-77
2021/05/28 11:55:21;;;;;;;4.65;2.30;;;22.80;89.50;;;;;;4991479;28;20038;-78
2021/05/28 11:57:57;;;;;;;12.55;2.58;;;24.20;90.40;;;;;;4990890;28;20057;-77
2021/05/28 12:00:23;;;;;;;3.08;1.90;;;25.70;83.80;;;;;;4990820;28;20528;-76
2021/05/28 12:02:52;;;;;;;2.72;2.20;;;24.90;81.30;;;;;;4982216;28;20026;-77
2021/05/28 12:05:32;;;;;;;3.70;2.40;;;22.40;85.70;;;;;;4978539;28;20102;-77
2021/05/28 12:08:00;;;;;;;2.95;1.92;;;21.50;90.60;;;;;;4983734;28;20023;-78
2021/05/28 12:10:29;;;;;;;3.97;2.60;;;20.80;90.80;;;;;;4983844;28;20078;-77
2021/05/28 12:13:03;;;;;;;5.65;2.63;;;20.60;92.00;;;;;;4982917;28;20025;-78
2021/05/28 12:15:34;;;;;;;4.70;2.97;;;20.80;92.40;;;;;;4965753;28;20034;-78
2021/05/28 12:18:02;;;;;;;2.35;2.15;;;20.70;92.60;;;;;;4981603;28;20400;-77
2021/05/28 12:20:31;;;;;;;3.47;2.25;;;22.50;90.90;;;;;;4966374;28;20520;-78
2021/05/28 12:22:58;;;;;;;5.15;2.55;;;23.70;87.20;;;;;;4992341;28;20030;-75
2021/05/28 12:25:24;;;;;;;4.30;1.55;;;25.10;78.20;;;;;;4986337;28;20014;-79
2021/05/28 12:27:50;;;;;;;2.75;2.10;;;26.20;75.80;;;;;;4997826;28;20046;-78
2021/05/28 12:30:22;;;;;;;2.28;1.75;;;26.50;70.00;;;;;;4979622;28;20027;-78
2021/05/28 12:32:48;;;;;;;5.20;1.60;;;27.40;67.20;;;;;;4995367;28;20024;-78
2021/05/28 12:35:13;;;;;;;1.77;1.42;;;27.10;67.50;;;;;;4995753;28;20034;-79
2021/05/28 12:38:06;;;;;;;3.67;1.75;;;26.50;68.70;;;;;;4967070;28;20023;-72
2021/05/28 12:40:33;;;;;;;1.55;1.45;;;27.90;63.10;;;;;;4980205;28;20110;-76
2021/05/28 12:43:00;;;;;;;3.33;1.58;;;26.40;65.60;;;;;;4964812;28;20038;-77
2021/05/28 12:45:43;;;;;;;2.70;2.05;;;24.80;66.40;;;;;;4970046;28;20027;-78
2021/05/28 12:48:11;;;;;;;3.63;1.75;;;23.30;71.80;;;;;;4987553;28;20066;-78
2021/05/28 12:50:39;;;;;;;4.10;1.65;;;22.60;73.20;;;;;;4984337;28;20031;-79
2021/05/28 12:53:15;;;;;;;4.28;1.95;;;22.00;73.90;;;;;;4965512;28;20096;-77